createdAt,value
2017-10-04T00:00:41.312Z,99.90
2017-10-04T00:03:09.282Z,99.70
2017-10-04T00:05:37.040Z,99.60
2017-10-04T00:08:05.318Z,99.50
2017-10-04T00:10:33.184Z,99.20
2017-10-04T00:13:01.252Z,99.70
2017-10-04T00:15:29.104Z,99.80
2017-10-04T00:17:56.876Z,99.90
2017-10-04T00:20:24.637Z,99.90
2017-10-04T00:22:52.415Z,99.90
2017-10-04T00:25:21.489Z,99.90
2017-10-04T00:27:49.272Z,99.90
2017-10-04T00:30:17.121Z,99.90
2017-10-04T00:32:45.092Z,99.90
2017-10-04T00:35:13.180Z,99.90
2017-10-04T00:37:40.963Z,99.90
2017-10-04T00:40:08.724Z,99.90
2017-10-04T00:42:36.575Z,99.90
2017-10-04T00:45:05.108Z,99.90
2017-10-04T00:47:32.919Z,99.90
2017-10-04T00:50:00.798Z,99.70
2017-10-04T00:52:28.740Z,99.50
2017-10-04T00:54:56.724Z,99.40
2017-10-04T00:57:25.110Z,99.20
2017-10-04T00:59:52.929Z,99.00
2017-10-04T01:02:20.796Z,99.00
2017-10-04T01:04:48.890Z,99.00
2017-10-04T01:07:16.761Z,99.00
2017-10-04T01:09:44.700Z,99.30
2017-10-04T01:12:13.232Z,98.90
2017-10-04T01:14:41.176Z,98.90
2017-10-04T01:17:09.260Z,98.60
2017-10-04T01:19:37.215Z,98.50
2017-10-04T01:22:05.099Z,98.40
2017-10-04T01:24:33.050Z,98.40
2017-10-04T01:27:00.846Z,98.20
2017-10-04T01:29:28.710Z,98.20
2017-10-04T01:31:57.062Z,98.20
2017-10-04T01:34:24.944Z,98.20
2017-10-04T01:36:52.722Z,98.00
2017-10-04T01:39:21.388Z,98.60
2017-10-04T01:41:49.463Z,98.20
2017-10-04T01:44:17.430Z,98.10
2017-10-04T01:46:45.300Z,98.20
2017-10-04T01:49:13.275Z,98.20
2017-10-04T01:51:41.426Z,98.40
2017-10-04T01:54:09.204Z,98.60
2017-10-04T01:56:37.054Z,98.60
2017-10-04T01:59:05.348Z,98.60
2017-10-04T02:01:33.197Z,98.80
2017-10-04T02:04:01.941Z,98.80
2017-10-04T02:06:30.581Z,99.10
2017-10-04T02:08:58.847Z,99.10
2017-10-04T02:11:27.127Z,99.50
2017-10-04T02:13:55.086Z,99.40
2017-10-04T02:16:22.868Z,99.30
2017-10-04T02:18:51.457Z,99.10
2017-10-04T02:21:19.213Z,99.10
2017-10-04T02:23:47.090Z,99.30
2017-10-04T02:26:14.947Z,99.20
2017-10-04T02:28:43.925Z,99.10
2017-10-04T02:31:12.310Z,99.10
2017-10-04T02:33:40.174Z,99.00
2017-10-04T02:36:08.115Z,99.40
2017-10-04T02:38:35.906Z,99.80
2017-10-04T02:41:03.766Z,99.90
2017-10-04T02:43:31.756Z,99.90
2017-10-04T02:45:59.729Z,99.90
2017-10-04T02:48:27.598Z,99.90
2017-10-04T02:50:55.460Z,99.80
2017-10-04T02:53:23.409Z,99.70
2017-10-04T02:55:51.294Z,99.70
2017-10-04T02:58:19.153Z,99.80
2017-10-04T03:00:47.109Z,99.90
2017-10-04T03:03:14.888Z,99.90
2017-10-04T03:05:43.697Z,99.90
2017-10-04T03:08:11.846Z,99.90
2017-10-04T03:10:39.922Z,99.90
2017-10-04T03:13:08.594Z,99.90
2017-10-04T03:15:37.095Z,99.80
2017-10-04T03:18:05.047Z,99.80
2017-10-04T03:20:32.914Z,99.70
2017-10-04T03:23:01.513Z,99.80
2017-10-04T03:25:29.459Z,99.80
2017-10-04T03:27:57.424Z,99.80
2017-10-04T03:30:25.315Z,99.90
2017-10-04T03:32:53.161Z,99.80
2017-10-04T03:35:21.948Z,99.70
2017-10-04T03:37:49.691Z,99.70
2017-10-04T03:40:17.785Z,99.60
2017-10-04T03:42:45.857Z,99.50
2017-10-04T03:45:14.276Z,99.40
2017-10-04T03:47:42.944Z,99.30
2017-10-04T03:50:11.105Z,99.30
2017-10-04T03:52:39.896Z,99.40
2017-10-04T03:55:07.648Z,99.30
2017-10-04T03:57:35.418Z,99.20
2017-10-04T04:00:03.374Z,99.20
2017-10-04T04:02:31.202Z,99.10
2017-10-04T04:04:59.838Z,98.70
2017-10-04T04:07:27.792Z,98.70
2017-10-04T04:09:55.763Z,98.70
2017-10-04T04:12:23.755Z,98.60
2017-10-04T04:14:51.800Z,98.70
2017-10-04T04:17:19.773Z,98.60
2017-10-04T04:19:47.759Z,98.70
2017-10-04T04:22:15.711Z,98.60
2017-10-04T04:24:43.590Z,98.60
2017-10-04T04:27:11.855Z,98.50
2017-10-04T04:29:40.129Z,98.50
2017-10-04T04:32:07.876Z,98.50
2017-10-04T04:34:35.616Z,98.50
2017-10-04T04:37:04.338Z,98.40
2017-10-04T04:39:32.920Z,98.40
2017-10-04T04:42:00.824Z,98.40
2017-10-04T04:44:29.580Z,98.20
2017-10-04T04:46:57.546Z,98.20
2017-10-04T04:49:25.734Z,98.20
2017-10-04T04:51:53.517Z,98.40
2017-10-04T04:54:21.362Z,98.50
2017-10-04T04:56:50.213Z,98.80
2017-10-04T04:59:18.033Z,98.60
2017-10-04T05:01:45.763Z,98.60
2017-10-04T05:04:13.735Z,98.50
2017-10-04T05:06:42.130Z,98.60
2017-10-04T05:09:10.007Z,98.60
2017-10-04T05:11:37.963Z,98.60
2017-10-04T05:14:06.433Z,98.60
2017-10-04T05:16:34.505Z,98.70
2017-10-04T05:19:03.922Z,98.80
2017-10-04T05:21:31.788Z,98.80
2017-10-04T05:23:59.640Z,98.90
2017-10-04T05:26:27.450Z,98.90
2017-10-04T05:28:56.203Z,99.20
2017-10-04T05:31:24.158Z,99.20
2017-10-04T05:33:52.251Z,99.50
2017-10-04T05:36:20.016Z,99.50
2017-10-04T05:38:47.879Z,99.70
2017-10-04T05:41:15.704Z,99.70
2017-10-04T05:43:43.515Z,99.90
2017-10-04T05:46:11.663Z,99.90
2017-10-04T05:48:39.448Z,99.90
2017-10-04T05:51:07.413Z,99.90
2017-10-04T05:53:35.284Z,99.90
2017-10-04T05:56:03.084Z,99.90
2017-10-04T05:58:31.839Z,99.90
2017-10-04T06:00:59.784Z,99.90
2017-10-04T06:03:27.750Z,99.80
2017-10-04T06:05:55.621Z,99.60
2017-10-04T06:08:23.385Z,99.50
2017-10-04T06:10:51.134Z,99.20
2017-10-04T06:13:18.918Z,99.10
2017-10-04T06:15:46.684Z,98.90
2017-10-04T06:18:14.662Z,98.50
2017-10-04T06:20:45.118Z,98.10
2017-10-04T06:23:16.329Z,97.60
2017-10-04T06:25:44.201Z,97.50
2017-10-04T06:28:13.587Z,96.90
2017-10-04T06:30:41.666Z,96.90
2017-10-04T06:33:09.619Z,95.30
2017-10-04T06:35:38.418Z,92.20
2017-10-04T06:38:06.383Z,92.00
2017-10-04T06:40:34.351Z,91.10
2017-10-04T06:43:02.423Z,88.70
2017-10-04T06:45:30.492Z,86.60
2017-10-04T06:47:58.495Z,84.90
2017-10-04T06:50:26.430Z,86.10
2017-10-04T06:52:54.404Z,89.30
2017-10-04T06:55:22.880Z,90.30
2017-10-04T06:57:50.770Z,90.80
2017-10-04T07:00:18.726Z,90.20
2017-10-04T07:02:46.604Z,90.50
2017-10-04T07:05:15.377Z,90.40
2017-10-04T07:07:43.339Z,90.40
2017-10-04T07:10:11.619Z,91.10
2017-10-04T07:12:39.689Z,89.40
2017-10-04T07:15:07.664Z,90.70
2017-10-04T07:17:35.548Z,87.60
2017-10-04T07:20:03.494Z,87.90
2017-10-04T07:22:31.461Z,86.30
2017-10-04T07:24:59.430Z,86.90
2017-10-04T07:27:27.810Z,88.30
2017-10-04T07:29:55.715Z,89.10
2017-10-04T07:32:24.387Z,90.20
2017-10-04T07:34:52.536Z,90.20
2017-10-04T07:37:20.706Z,88.60
2017-10-04T07:39:48.677Z,89.00
2017-10-04T07:42:16.645Z,88.20
2017-10-04T07:44:45.535Z,88.90
2017-10-04T07:47:13.502Z,87.70
2017-10-04T07:49:42.026Z,87.90
2017-10-04T07:52:10.877Z,84.40
2017-10-04T07:54:38.769Z,84.30
2017-10-04T07:57:06.817Z,83.60
2017-10-04T07:59:34.681Z,85.30
2017-10-04T08:02:02.884Z,84.50
2017-10-04T08:04:32.285Z,82.80
2017-10-04T08:07:00.230Z,82.70
2017-10-04T08:09:28.434Z,80.20
2017-10-04T08:11:56.367Z,78.70
2017-10-04T08:14:24.336Z,79.10
2017-10-04T08:16:52.569Z,81.00
2017-10-04T08:19:21.298Z,78.00
2017-10-04T08:21:49.267Z,78.60
2017-10-04T08:24:17.234Z,80.70
2017-10-04T08:26:45.210Z,82.00
2017-10-04T08:29:13.173Z,81.40
2017-10-04T08:31:41.142Z,80.00
2017-10-04T08:34:09.110Z,81.10
2017-10-04T08:36:37.079Z,80.50
2017-10-04T08:39:05.356Z,80.70
2017-10-04T08:41:33.325Z,83.80
2017-10-04T08:44:01.423Z,82.40
2017-10-04T08:46:29.469Z,81.50
2017-10-04T08:48:57.540Z,82.90
2017-10-04T08:51:25.509Z,84.00
2017-10-04T08:53:53.580Z,84.30
2017-10-04T08:56:21.549Z,87.30
2017-10-04T08:58:49.536Z,83.20
2017-10-04T09:01:17.591Z,83.90
2017-10-04T09:03:45.661Z,86.90
2017-10-04T09:06:13.734Z,83.40
2017-10-04T09:08:41.638Z,83.80
2017-10-04T09:11:10.808Z,82.70
2017-10-04T09:13:38.905Z,82.70
2017-10-04T09:16:07.678Z,81.90
2017-10-04T09:18:35.638Z,81.90
2017-10-04T09:21:03.594Z,77.80
2017-10-04T09:23:31.669Z,78.60
2017-10-04T09:25:59.688Z,76.60
2017-10-04T09:28:28.421Z,75.10
2017-10-04T09:30:57.517Z,75.10
2017-10-04T09:33:25.486Z,75.70
2017-10-04T09:35:53.557Z,77.10
2017-10-04T09:38:21.526Z,81.80
2017-10-04T09:40:51.441Z,80.40
2017-10-04T09:43:19.924Z,80.70
2017-10-04T09:45:47.838Z,77.50
2017-10-04T09:48:16.393Z,79.30
2017-10-04T09:50:44.261Z,79.30
2017-10-04T09:53:12.310Z,76.10
2017-10-04T09:55:40.820Z,75.20
2017-10-04T09:58:10.377Z,77.10
2017-10-04T10:00:39.781Z,77.00
2017-10-04T10:03:08.219Z,73.20
2017-10-04T10:05:36.845Z,73.10
2017-10-04T10:08:05.239Z,73.10
2017-10-04T10:10:33.317Z,69.00
2017-10-04T10:13:01.207Z,73.30
2017-10-04T10:15:29.094Z,74.90
2017-10-04T10:17:58.141Z,75.70
2017-10-04T10:20:26.149Z,75.80
2017-10-04T10:22:54.902Z,73.10
2017-10-04T10:25:23.013Z,73.20
2017-10-04T10:27:51.766Z,76.70
2017-10-04T10:30:20.756Z,76.60
2017-10-04T10:32:48.721Z,77.40
2017-10-04T10:35:16.690Z,79.50
2017-10-04T10:37:44.663Z,77.80
2017-10-04T10:40:12.622Z,79.90
2017-10-04T10:42:40.611Z,80.00
2017-10-04T10:45:08.566Z,78.70
2017-10-04T10:47:36.456Z,80.40
2017-10-04T10:50:04.607Z,81.90
2017-10-04T10:52:32.576Z,81.90
2017-10-04T10:55:01.467Z,84.60
2017-10-04T10:57:29.434Z,83.50
2017-10-04T10:59:57.428Z,82.50
2017-10-04T11:02:26.124Z,80.90
2017-10-04T11:04:55.022Z,81.70
2017-10-04T11:07:23.804Z,83.50
2017-10-04T11:09:52.494Z,82.60
2017-10-04T11:12:21.379Z,82.60
2017-10-04T11:14:49.619Z,82.60
2017-10-04T11:17:17.541Z,84.30
2017-10-04T11:19:46.377Z,78.30
2017-10-04T11:22:14.383Z,78.30
2017-10-04T11:24:44.195Z,76.40
2017-10-04T11:27:13.772Z,73.50
2017-10-04T11:29:41.763Z,73.60
2017-10-04T11:32:10.522Z,71.00
2017-10-04T11:34:38.393Z,71.00
2017-10-04T11:37:06.461Z,71.40
2017-10-04T11:39:34.539Z,65.40
2017-10-04T11:42:02.603Z,69.00
2017-10-04T11:44:30.571Z,66.40
2017-10-04T11:46:58.539Z,68.10
2017-10-04T11:49:27.221Z,69.00
2017-10-04T11:51:55.121Z,71.20
2017-10-04T11:54:23.367Z,70.50
2017-10-04T11:56:51.346Z,73.00
2017-10-04T11:59:20.176Z,69.70
2017-10-04T12:01:49.119Z,71.90
2017-10-04T12:04:17.088Z,71.90
2017-10-04T12:06:45.071Z,69.60
2017-10-04T12:09:13.129Z,70.60
2017-10-04T12:11:41.095Z,73.00
2017-10-04T12:14:09.107Z,71.90
2017-10-04T12:16:37.801Z,73.10
2017-10-04T12:19:06.543Z,73.30
2017-10-04T12:21:35.694Z,73.30
2017-10-04T12:24:03.810Z,70.30
2017-10-04T12:26:31.780Z,70.50
2017-10-04T12:29:00.912Z,68.60
2017-10-04T12:31:29.976Z,69.20
2017-10-04T12:33:57.950Z,69.20
2017-10-04T12:36:26.110Z,69.10
2017-10-04T12:38:55.107Z,69.90
2017-10-04T12:41:23.278Z,69.90
2017-10-04T12:43:51.359Z,71.40
2017-10-04T12:46:19.368Z,68.80
2017-10-04T12:48:48.252Z,67.40
2017-10-04T12:51:18.183Z,69.30
2017-10-04T12:53:46.398Z,69.30
2017-10-04T12:56:14.572Z,68.70
2017-10-04T12:58:44.125Z,70.90
2017-10-04T13:01:12.906Z,71.50
2017-10-04T13:03:43.176Z,70.00
2017-10-04T13:06:11.313Z,70.00
2017-10-04T13:08:39.974Z,71.20
2017-10-04T13:11:07.913Z,71.30
2017-10-04T13:13:35.885Z,69.60
2017-10-04T13:16:04.890Z,70.70
2017-10-04T13:18:34.506Z,70.40
2017-10-04T13:21:02.981Z,69.10
2017-10-04T13:23:31.041Z,72.40
2017-10-04T13:25:59.862Z,71.90
2017-10-04T13:28:28.650Z,73.70
2017-10-04T13:30:57.604Z,74.70
2017-10-04T13:33:25.676Z,74.80
2017-10-04T13:35:53.645Z,74.90
2017-10-04T13:38:21.565Z,72.30
2017-10-04T13:40:49.522Z,72.30
2017-10-04T13:43:18.370Z,74.40
2017-10-04T13:45:46.442Z,74.50
2017-10-04T13:48:14.662Z,73.30
2017-10-04T13:50:43.324Z,75.30
2017-10-04T13:53:11.380Z,75.30
2017-10-04T13:55:39.450Z,76.90
2017-10-04T13:58:09.094Z,77.10
2017-10-04T14:00:38.150Z,74.80
2017-10-04T14:03:06.155Z,74.70
2017-10-04T14:05:35.006Z,72.60
2017-10-04T14:08:03.489Z,72.50
2017-10-04T14:10:31.865Z,75.80
2017-10-04T14:12:59.937Z,72.80
2017-10-04T14:15:27.904Z,74.40
2017-10-04T14:17:55.979Z,71.30
2017-10-04T14:20:23.944Z,71.00
2017-10-04T14:22:51.846Z,69.80
2017-10-04T14:25:20.702Z,71.20
2017-10-04T14:27:48.710Z,71.30
2017-10-04T14:30:18.216Z,71.10
2017-10-04T14:32:47.895Z,71.60
2017-10-04T14:35:15.854Z,71.80
2017-10-04T14:37:43.829Z,73.20
2017-10-04T14:40:11.828Z,72.70
2017-10-04T14:42:40.579Z,74.00
2017-10-04T14:45:08.554Z,74.10
2017-10-04T14:47:36.549Z,73.30
2017-10-04T14:50:05.618Z,70.20
2017-10-04T14:52:34.099Z,69.30
2017-10-04T14:55:01.985Z,70.00
2017-10-04T14:57:30.853Z,67.30
2017-10-04T14:59:58.925Z,69.40
2017-10-04T15:02:28.119Z,70.40
2017-10-04T15:04:56.093Z,69.90
2017-10-04T15:07:24.186Z,71.70
2017-10-04T15:09:52.185Z,73.00
2017-10-04T15:12:20.300Z,73.20
2017-10-04T15:14:48.727Z,75.20
2017-10-04T15:17:17.405Z,75.60
2017-10-04T15:19:46.188Z,76.30
2017-10-04T15:22:14.941Z,75.60
2017-10-04T15:24:43.118Z,75.60
2017-10-04T15:27:11.256Z,75.40
2017-10-04T15:29:39.361Z,78.10
2017-10-04T15:32:07.535Z,77.20
2017-10-04T15:34:35.646Z,76.50
2017-10-04T15:37:04.293Z,75.60
2017-10-04T15:39:32.180Z,75.70
2017-10-04T15:42:00.145Z,77.00
2017-10-04T15:44:28.711Z,79.40
2017-10-04T15:46:56.582Z,79.70
2017-10-04T15:49:24.491Z,81.20
2017-10-04T15:51:53.121Z,79.90
2017-10-04T15:54:21.009Z,80.00
2017-10-04T15:56:48.961Z,80.90
2017-10-04T15:59:17.033Z,82.60
2017-10-04T16:01:45.034Z,82.90
2017-10-04T16:04:13.073Z,82.80
2017-10-04T16:06:41.249Z,83.60
2017-10-04T16:09:09.217Z,83.40
2017-10-04T16:11:37.192Z,84.30
2017-10-04T16:14:06.077Z,85.70
2017-10-04T16:16:34.095Z,84.90
2017-10-04T16:19:02.220Z,85.80
2017-10-04T16:21:30.217Z,86.20
2017-10-04T16:23:58.710Z,87.50
2017-10-04T16:26:27.463Z,89.80
2017-10-04T16:28:55.527Z,89.80
2017-10-04T16:31:23.601Z,90.90
2017-10-04T16:33:51.567Z,91.50
2017-10-04T16:36:19.741Z,92.10
2017-10-04T16:38:48.735Z,92.90
2017-10-04T16:41:17.023Z,93.20
2017-10-04T16:43:45.490Z,93.90
2017-10-04T16:46:14.078Z,94.50
2017-10-04T16:48:42.146Z,94.90
2017-10-04T16:51:10.227Z,95.00
2017-10-04T16:53:39.619Z,95.70
2017-10-04T16:56:07.832Z,96.10
2017-10-04T16:58:36.689Z,96.70
2017-10-04T17:01:04.578Z,96.70
2017-10-04T17:03:32.855Z,96.80
2017-10-04T17:06:00.897Z,96.70
2017-10-04T17:08:28.762Z,96.80
2017-10-04T17:10:56.630Z,96.60
2017-10-04T17:13:24.944Z,97.40
2017-10-04T17:15:53.612Z,97.10
2017-10-04T17:18:21.374Z,97.00
2017-10-04T17:20:49.321Z,97.20
2017-10-04T17:23:17.404Z,97.50
2017-10-04T17:25:45.987Z,98.30
2017-10-04T17:28:13.996Z,97.70
2017-10-04T17:30:42.839Z,97.80
2017-10-04T17:33:15.390Z,97.80
2017-10-04T17:35:43.590Z,97.90
2017-10-04T17:38:12.834Z,98.10
2017-10-04T17:40:41.605Z,98.00
2017-10-04T17:43:10.752Z,98.10
2017-10-04T17:45:38.988Z,98.10
2017-10-04T17:48:07.735Z,98.20
2017-10-04T17:50:35.631Z,98.20
2017-10-04T17:53:04.215Z,98.20
2017-10-04T17:55:32.286Z,98.50
2017-10-04T17:58:01.200Z,98.50
2017-10-04T18:00:30.034Z,98.70
2017-10-04T18:02:58.275Z,98.70
2017-10-04T18:05:26.218Z,98.60
2017-10-04T18:07:54.900Z,98.80
2017-10-04T18:10:23.587Z,98.80
2017-10-04T18:12:51.725Z,98.50
2017-10-04T18:15:19.792Z,98.50
2017-10-04T18:17:49.359Z,98.30
2017-10-04T18:20:18.496Z,98.30
2017-10-04T18:22:46.683Z,98.10
2017-10-04T18:25:14.750Z,98.20
2017-10-04T18:27:42.812Z,98.30
2017-10-04T18:30:11.020Z,98.40
2017-10-04T18:32:39.163Z,98.30
2017-10-04T18:35:07.234Z,98.30
2017-10-04T18:37:35.352Z,98.40
2017-10-04T18:40:04.139Z,98.20
2017-10-04T18:42:33.649Z,98.30
2017-10-04T18:45:01.817Z,98.30
2017-10-04T18:47:30.007Z,98.50
2017-10-04T18:49:58.222Z,98.50
2017-10-04T18:52:26.394Z,98.50
2017-10-04T18:54:54.397Z,98.40
2017-10-04T18:57:22.397Z,98.40
2017-10-04T18:59:50.816Z,98.40
2017-10-04T19:02:19.602Z,98.40
2017-10-04T19:04:47.722Z,98.30
2017-10-04T19:07:16.721Z,98.40
2017-10-04T19:09:45.492Z,98.50
2017-10-04T19:12:13.372Z,98.50
2017-10-04T19:14:41.498Z,98.50
2017-10-04T19:17:09.667Z,98.40
2017-10-04T19:19:37.837Z,98.40
2017-10-04T19:22:06.020Z,98.40
2017-10-04T19:24:34.069Z,97.90
2017-10-04T19:27:02.198Z,97.90
2017-10-04T19:29:30.984Z,97.50
2017-10-04T19:31:59.670Z,97.50
2017-10-04T19:34:28.212Z,97.50
2017-10-04T19:36:56.178Z,97.60
2017-10-04T19:39:24.083Z,97.60
2017-10-04T19:41:52.019Z,97.80
2017-10-04T19:44:19.896Z,97.80
2017-10-04T19:46:47.849Z,97.70
2017-10-04T19:49:15.926Z,97.80
2017-10-04T19:51:45.839Z,97.80
2017-10-04T19:54:14.840Z,97.70
2017-10-04T19:56:42.934Z,97.70
2017-10-04T19:59:11.626Z,97.40
2017-10-04T20:01:40.373Z,97.50
2017-10-04T20:04:08.749Z,97.50
2017-10-04T20:06:36.932Z,97.40
2017-10-04T20:09:04.928Z,97.10
2017-10-04T20:11:33.605Z,97.30
2017-10-04T20:14:01.576Z,97.40
2017-10-04T20:16:29.617Z,97.20
2017-10-04T20:18:57.504Z,97.10
2017-10-04T20:21:25.431Z,97.00
2017-10-04T20:23:53.343Z,97.10
2017-10-04T20:26:21.433Z,97.10
2017-10-04T20:28:50.409Z,97.30
2017-10-04T20:31:18.281Z,97.30
2017-10-04T20:33:46.154Z,97.20
2017-10-04T20:36:14.401Z,97.00
2017-10-04T20:38:42.281Z,96.80
2017-10-04T20:41:10.346Z,96.60
2017-10-04T20:43:38.204Z,96.70
2017-10-04T20:46:06.079Z,96.70
2017-10-04T20:48:33.877Z,96.50
2017-10-04T20:51:03.847Z,96.40
2017-10-04T20:53:31.920Z,96.40
2017-10-04T20:55:59.890Z,96.50
2017-10-04T20:58:28.370Z,96.50
2017-10-04T21:00:56.371Z,96.40
2017-10-04T21:03:24.341Z,96.40
2017-10-04T21:05:52.884Z,96.50
2017-10-04T21:08:20.884Z,96.50
2017-10-04T21:10:48.743Z,96.50
2017-10-04T21:13:16.587Z,96.30
2017-10-04T21:15:44.658Z,96.50
2017-10-04T21:18:12.767Z,96.40
2017-10-04T21:20:40.619Z,96.40
2017-10-04T21:23:08.851Z,96.40
2017-10-04T21:25:37.658Z,96.50
2017-10-04T21:28:05.635Z,96.50
2017-10-04T21:30:35.946Z,96.60
2017-10-04T21:33:03.826Z,96.50
2017-10-04T21:35:31.712Z,96.40
2017-10-04T21:37:59.569Z,96.40
2017-10-04T21:40:27.531Z,96.40
2017-10-04T21:42:55.408Z,96.30
2017-10-04T21:45:24.176Z,96.00
2017-10-04T21:47:52.070Z,95.90
2017-10-04T21:50:19.834Z,95.80
2017-10-04T21:52:47.691Z,95.80
2017-10-04T21:55:15.448Z,95.70
2017-10-04T21:57:43.339Z,95.80
2017-10-04T22:00:11.148Z,95.70
2017-10-04T22:02:38.907Z,95.80
2017-10-04T22:05:06.802Z,95.50
2017-10-04T22:07:34.704Z,95.60
2017-10-04T22:10:03.275Z,96.00
2017-10-04T22:12:31.290Z,96.00
2017-10-04T22:14:59.206Z,96.20
2017-10-04T22:17:27.307Z,96.40
2017-10-04T22:19:57.486Z,96.50
2017-10-04T22:22:25.386Z,96.50
2017-10-04T22:24:53.578Z,96.30
2017-10-04T22:27:22.028Z,95.50
2017-10-04T22:29:49.872Z,95.50
2017-10-04T22:32:17.574Z,95.20
2017-10-04T22:34:45.341Z,94.90
2017-10-04T22:37:13.987Z,94.50
2017-10-04T22:39:41.813Z,94.50
2017-10-04T22:42:09.928Z,94.50
2017-10-04T22:44:38.008Z,94.10
2017-10-04T22:47:06.360Z,93.90
2017-10-04T22:49:34.133Z,93.70
2017-10-04T22:52:02.129Z,93.70
2017-10-04T22:54:30.090Z,93.80
2017-10-04T22:56:57.967Z,93.80
2017-10-04T22:59:26.948Z,93.60
2017-10-04T23:01:55.526Z,93.50
2017-10-04T23:04:23.513Z,93.60
2017-10-04T23:06:51.284Z,93.70
2017-10-04T23:09:19.955Z,93.80
2017-10-04T23:11:48.017Z,93.80
2017-10-04T23:14:15.975Z,93.80
2017-10-04T23:16:43.845Z,93.80
2017-10-04T23:19:12.008Z,93.80
2017-10-04T23:21:39.896Z,93.80
2017-10-04T23:24:07.956Z,93.80
2017-10-04T23:26:35.934Z,93.70
2017-10-04T23:29:03.901Z,93.60
2017-10-04T23:31:31.691Z,93.80
2017-10-04T23:34:00.543Z,92.90
2017-10-04T23:36:28.509Z,92.60
2017-10-04T23:38:56.715Z,92.50
2017-10-04T23:41:24.670Z,92.30
2017-10-04T23:43:52.532Z,92.20
2017-10-04T23:46:20.484Z,91.90
2017-10-04T23:48:48.661Z,92.10
2017-10-04T23:51:16.737Z,91.70
2017-10-04T23:53:44.728Z,91.70
2017-10-04T23:56:12.473Z,91.90
2017-10-04T23:58:40.357Z,91.50
